John Monaghan - Flight Operations: 0862486210
EIDW 261430Z 07012KT CAVOK 10/03 Q1025 NOSIG